sensor_id;sensor_type;location;lat;lon;timestamp;P1;durP1;ratioP1;P2;durP2;ratioP2
17079;SDS011;8655;57.106;-2.088;2023-03-23T00:01:10;5.27;;;2.23;;
17079;SDS011;8655;57.106;-2.088;2023-03-23T00:03:44;5.77;;;2.50;;
17079;SDS011;8655;57.106;-2.088;2023-03-23T00:06:12;8.10;;;2.63;;
17079;SDS011;8655;57.106;-2.088;2023-03-23T00:08:42;6.90;;;2.43;;
17079;SDS011;8655;57.106;-2.088;2023-03-23T00:11:20;7.20;;;3.10;;
17079;SDS011;8655;57.106;-2.088;2023-03-23T00:13:54;7.33;;;2.70;;
17079;SDS011;8655;57.106;-2.088;2023-03-23T00:16:22;6.30;;;2.50;;
17079;SDS011;8655;57.106;-2.088;2023-03-23T00:19:00;5.17;;;2.30;;
17079;SDS011;8655;57.106;-2.088;2023-03-23T00:21:28;6.87;;;2.57;;
17079;SDS011;8655;57.106;-2.088;2023-03-23T00:24:00;6.97;;;2.57;;
17079;SDS011;8655;57.106;-2.088;2023-03-23T00:26:31;6.07;;;2.30;;
17079;SDS011;8655;57.106;-2.088;2023-03-23T00:28:58;6.87;;;2.70;;
17079;SDS011;8655;57.106;-2.088;2023-03-23T00:31:26;7.53;;;2.60;;
17079;SDS011;8655;57.106;-2.088;2023-03-23T00:34:00;6.63;;;2.67;;
17079;SDS011;8655;57.106;-2.088;2023-03-23T00:36:28;8.20;;;2.80;;
17079;SDS011;8655;57.106;-2.088;2023-03-23T00:39:00;8.50;;;2.53;;
17079;SDS011;8655;57.106;-2.088;2023-03-23T00:41:27;6.83;;;2.60;;
17079;SDS011;8655;57.106;-2.088;2023-03-23T00:43:57;7.80;;;2.50;;
17079;SDS011;8655;57.106;-2.088;2023-03-23T00:46:25;5.53;;;2.20;;
17079;SDS011;8655;57.106;-2.088;2023-03-23T00:48:53;7.90;;;2.63;;
17079;SDS011;8655;57.106;-2.088;2023-03-23T00:51:19;6.33;;;2.40;;
17079;SDS011;8655;57.106;-2.088;2023-03-23T00:53:45;6.23;;;2.43;;
17079;SDS011;8655;57.106;-2.088;2023-03-23T00:56:11;8.10;;;2.50;;
17079;SDS011;8655;57.106;-2.088;2023-03-23T00:58:38;5.53;;;2.30;;
17079;SDS011;8655;57.106;-2.088;2023-03-23T01:01:04;7.07;;;2.63;;
17079;SDS011;8655;57.106;-2.088;2023-03-23T01:03:31;6.87;;;2.73;;
17079;SDS011;8655;57.106;-2.088;2023-03-23T01:05:57;6.57;;;2.53;;
17079;SDS011;8655;57.106;-2.088;2023-03-23T01:08:23;8.07;;;2.63;;
17079;SDS011;8655;57.106;-2.088;2023-03-23T01:10:49;7.17;;;2.20;;
17079;SDS011;8655;57.106;-2.088;2023-03-23T01:13:15;7.13;;;2.77;;
17079;SDS011;8655;57.106;-2.088;2023-03-23T01:15:41;9.90;;;2.50;;
17079;SDS011;8655;57.106;-2.088;2023-03-23T01:18:08;8.47;;;2.80;;
17079;SDS011;8655;57.106;-2.088;2023-03-23T01:20:34;7.47;;;2.50;;
17079;SDS011;8655;57.106;-2.088;2023-03-23T01:23:01;6.37;;;2.87;;
17079;SDS011;8655;57.106;-2.088;2023-03-23T01:25:30;7.27;;;2.83;;
17079;SDS011;8655;57.106;-2.088;2023-03-23T01:27:57;4.93;;;2.30;;
17079;SDS011;8655;57.106;-2.088;2023-03-23T01:30:24;6.97;;;2.90;;
17079;SDS011;8655;57.106;-2.088;2023-03-23T01:32:50;8.40;;;2.77;;
17079;SDS011;8655;57.106;-2.088;2023-03-23T01:35:17;6.63;;;2.60;;
17079;SDS011;8655;57.106;-2.088;2023-03-23T01:37:43;6.77;;;2.50;;
17079;SDS011;8655;57.106;-2.088;2023-03-23T01:40:09;8.67;;;2.70;;
17079;SDS011;8655;57.106;-2.088;2023-03-23T01:42:36;7.13;;;2.60;;
17079;SDS011;8655;57.106;-2.088;2023-03-23T01:47:55;5.50;;;2.20;;
17079;SDS011;8655;57.106;-2.088;2023-03-23T01:50:24;9.60;;;2.50;;
17079;SDS011;8655;57.106;-2.088;2023-03-23T01:52:52;7.23;;;2.70;;
17079;SDS011;8655;57.106;-2.088;2023-03-23T01:55:20;10.07;;;3.10;;
17079;SDS011;8655;57.106;-2.088;2023-03-23T01:57:47;7.57;;;2.60;;
17079;SDS011;8655;57.106;-2.088;2023-03-23T02:00:14;6.33;;;2.60;;
17079;SDS011;8655;57.106;-2.088;2023-03-23T02:02:44;7.00;;;2.60;;
17079;SDS011;8655;57.106;-2.088;2023-03-23T02:05:46;5.57;;;2.30;;
17079;SDS011;8655;57.106;-2.088;2023-03-23T02:08:06;6.27;;;2.37;;
17079;SDS011;8655;57.106;-2.088;2023-03-23T02:10:34;5.60;;;2.40;;
17079;SDS011;8655;57.106;-2.088;2023-03-23T02:13:02;6.77;;;2.40;;
17079;SDS011;8655;57.106;-2.088;2023-03-23T02:15:33;5.83;;;2.30;;
17079;SDS011;8655;57.106;-2.088;2023-03-23T02:18:32;7.07;;;2.23;;
17079;SDS011;8655;57.106;-2.088;2023-03-23T02:26:32;8.10;;;2.70;;
17079;SDS011;8655;57.106;-2.088;2023-03-23T02:35:22;6.00;;;2.50;;
17079;SDS011;8655;57.106;-2.088;2023-03-23T02:37:59;6.83;;;2.50;;
17079;SDS011;8655;57.106;-2.088;2023-03-23T02:40:39;7.30;;;2.60;;
17079;SDS011;8655;57.106;-2.088;2023-03-23T02:43:09;7.33;;;2.63;;
17079;SDS011;8655;57.106;-2.088;2023-03-23T02:45:38;5.47;;;2.30;;
17079;SDS011;8655;57.106;-2.088;2023-03-23T02:48:06;5.53;;;2.50;;
17079;SDS011;8655;57.106;-2.088;2023-03-23T02:50:34;7.80;;;2.70;;
17079;SDS011;8655;57.106;-2.088;2023-03-23T02:53:01;8.97;;;2.67;;
17079;SDS011;8655;57.106;-2.088;2023-03-23T02:55:31;6.07;;;2.70;;
17079;SDS011;8655;57.106;-2.088;2023-03-23T02:57:58;6.43;;;2.67;;
17079;SDS011;8655;57.106;-2.088;2023-03-23T03:00:26;6.27;;;2.30;;
17079;SDS011;8655;57.106;-2.088;2023-03-23T03:02:53;5.90;;;2.70;;
17079;SDS011;8655;57.106;-2.088;2023-03-23T03:08:18;5.00;;;2.13;;
17079;SDS011;8655;57.106;-2.088;2023-03-23T03:21:27;4.37;;;1.90;;
17079;SDS011;8655;57.106;-2.088;2023-03-23T03:23:55;8.07;;;2.70;;
17079;SDS011;8655;57.106;-2.088;2023-03-23T03:26:25;6.90;;;2.70;;
17079;SDS011;8655;57.106;-2.088;2023-03-23T03:28:53;5.20;;;2.20;;
17079;SDS011;8655;57.106;-2.088;2023-03-23T03:31:20;5.43;;;2.33;;
17079;SDS011;8655;57.106;-2.088;2023-03-23T03:33:56;5.37;;;2.03;;
17079;SDS011;8655;57.106;-2.088;2023-03-23T03:36:24;6.43;;;2.60;;
17079;SDS011;8655;57.106;-2.088;2023-03-23T03:38:59;5.47;;;2.10;;
17079;SDS011;8655;57.106;-2.088;2023-03-23T03:41:33;6.13;;;2.37;;
17079;SDS011;8655;57.106;-2.088;2023-03-23T03:44:00;6.77;;;2.23;;
17079;SDS011;8655;57.106;-2.088;2023-03-23T03:46:27;5.67;;;2.50;;
17079;SDS011;8655;57.106;-2.088;2023-03-23T03:48:55;5.80;;;2.10;;
17079;SDS011;8655;57.106;-2.088;2023-03-23T03:51:22;5.27;;;2.00;;
17079;SDS011;8655;57.106;-2.088;2023-03-23T03:53:48;4.43;;;1.87;;
17079;SDS011;8655;57.106;-2.088;2023-03-23T03:56:13;4.47;;;2.30;;
17079;SDS011;8655;57.106;-2.088;2023-03-23T03:58:39;4.57;;;2.17;;
17079;SDS011;8655;57.106;-2.088;2023-03-23T04:01:07;4.97;;;1.90;;
17079;SDS011;8655;57.106;-2.088;2023-03-23T04:03:36;4.20;;;1.87;;
17079;SDS011;8655;57.106;-2.088;2023-03-23T04:06:02;4.87;;;2.03;;
17079;SDS011;8655;57.106;-2.088;2023-03-23T04:08:28;4.93;;;2.20;;
17079;SDS011;8655;57.106;-2.088;2023-03-23T04:10:54;5.20;;;1.90;;
17079;SDS011;8655;57.106;-2.088;2023-03-23T04:13:20;5.37;;;2.13;;
17079;SDS011;8655;57.106;-2.088;2023-03-23T04:15:47;3.63;;;1.77;;
17079;SDS011;8655;57.106;-2.088;2023-03-23T04:18:13;3.70;;;1.87;;
17079;SDS011;8655;57.106;-2.088;2023-03-23T04:20:42;4.40;;;2.00;;
17079;SDS011;8655;57.106;-2.088;2023-03-23T04:23:09;4.23;;;1.90;;
17079;SDS011;8655;57.106;-2.088;2023-03-23T04:25:35;3.80;;;1.87;;
17079;SDS011;8655;57.106;-2.088;2023-03-23T04:28:01;3.27;;;1.70;;
17079;SDS011;8655;57.106;-2.088;2023-03-23T04:30:27;4.10;;;1.93;;
17079;SDS011;8655;57.106;-2.088;2023-03-23T04:32:54;3.60;;;1.50;;
17079;SDS011;8655;57.106;-2.088;2023-03-23T04:35:21;3.73;;;1.87;;
17079;SDS011;8655;57.106;-2.088;2023-03-23T04:37:49;3.00;;;1.60;;
17079;SDS011;8655;57.106;-2.088;2023-03-23T04:40:16;3.87;;;1.80;;
17079;SDS011;8655;57.106;-2.088;2023-03-23T04:42:43;3.37;;;1.60;;
17079;SDS011;8655;57.106;-2.088;2023-03-23T04:45:10;4.97;;;2.03;;
17079;SDS011;8655;57.106;-2.088;2023-03-23T04:47:39;3.97;;;1.90;;
17079;SDS011;8655;57.106;-2.088;2023-03-23T04:50:10;4.07;;;1.77;;
17079;SDS011;8655;57.106;-2.088;2023-03-23T04:52:38;3.67;;;1.87;;
17079;SDS011;8655;57.106;-2.088;2023-03-23T04:55:05;3.07;;;1.53;;
17079;SDS011;8655;57.106;-2.088;2023-03-23T04:57:33;3.23;;;1.40;;
17079;SDS011;8655;57.106;-2.088;2023-03-23T05:00:00;4.07;;;1.97;;
17079;SDS011;8655;57.106;-2.088;2023-03-23T05:02:36;3.77;;;1.50;;
17079;SDS011;8655;57.106;-2.088;2023-03-23T05:05:04;3.60;;;1.47;;
17079;SDS011;8655;57.106;-2.088;2023-03-23T05:07:31;2.13;;;1.40;;
17079;SDS011;8655;57.106;-2.088;2023-03-23T05:09:57;3.07;;;1.60;;
17079;SDS011;8655;57.106;-2.088;2023-03-23T05:12:23;3.03;;;1.43;;
17079;SDS011;8655;57.106;-2.088;2023-03-23T05:14:49;2.83;;;1.63;;
17079;SDS011;8655;57.106;-2.088;2023-03-23T05:17:14;3.30;;;1.47;;
17079;SDS011;8655;57.106;-2.088;2023-03-23T05:19:44;2.50;;;1.37;;
17079;SDS011;8655;57.106;-2.088;2023-03-23T05:22:12;3.43;;;1.73;;
17079;SDS011;8655;57.106;-2.088;2023-03-23T05:24:41;2.63;;;1.70;;
17079;SDS011;8655;57.106;-2.088;2023-03-23T05:27:08;2.33;;;1.30;;
17079;SDS011;8655;57.106;-2.088;2023-03-23T05:29:36;3.27;;;1.50;;
17079;SDS011;8655;57.106;-2.088;2023-03-23T05:32:03;3.00;;;1.33;;
17079;SDS011;8655;57.106;-2.088;2023-03-23T05:34:30;2.63;;;1.13;;
17079;SDS011;8655;57.106;-2.088;2023-03-23T05:37:00;2.23;;;1.40;;
17079;SDS011;8655;57.106;-2.088;2023-03-23T05:39:27;2.23;;;1.40;;
17079;SDS011;8655;57.106;-2.088;2023-03-23T05:41:53;2.23;;;1.20;;
17079;SDS011;8655;57.106;-2.088;2023-03-23T05:44:19;2.63;;;1.30;;
17079;SDS011;8655;57.106;-2.088;2023-03-23T05:46:45;2.73;;;1.30;;
17079;SDS011;8655;57.106;-2.088;2023-03-23T05:49:12;2.40;;;1.37;;
17079;SDS011;8655;57.106;-2.088;2023-03-23T05:51:38;3.47;;;1.40;;
17079;SDS011;8655;57.106;-2.088;2023-03-23T05:54:04;2.13;;;1.30;;
17079;SDS011;8655;57.106;-2.088;2023-03-23T05:56:30;2.20;;;1.20;;
17079;SDS011;8655;57.106;-2.088;2023-03-23T05:58:57;1.53;;;1.03;;
17079;SDS011;8655;57.106;-2.088;2023-03-23T06:01:23;2.60;;;1.50;;
17079;SDS011;8655;57.106;-2.088;2023-03-23T06:03:49;2.50;;;1.40;;
17079;SDS011;8655;57.106;-2.088;2023-03-23T06:06:19;2.23;;;1.30;;
17079;SDS011;8655;57.106;-2.088;2023-03-23T06:08:45;1.80;;;0.93;;
17079;SDS011;8655;57.106;-2.088;2023-03-23T06:11:11;1.73;;;1.00;;
17079;SDS011;8655;57.106;-2.088;2023-03-23T06:13:38;2.70;;;1.30;;
17079;SDS011;8655;57.106;-2.088;2023-03-23T06:16:04;1.90;;;1.23;;
17079;SDS011;8655;57.106;-2.088;2023-03-23T06:18:30;2.17;;;1.10;;
17079;SDS011;8655;57.106;-2.088;2023-03-23T06:20:58;1.20;;;0.90;;
17079;SDS011;8655;57.106;-2.088;2023-03-23T06:23:25;1.03;;;0.80;;
17079;SDS011;8655;57.106;-2.088;2023-03-23T06:25:54;1.20;;;1.00;;
17079;SDS011;8655;57.106;-2.088;2023-03-23T06:28:22;1.30;;;1.00;;
17079;SDS011;8655;57.106;-2.088;2023-03-23T06:30:49;2.07;;;1.10;;
17079;SDS011;8655;57.106;-2.088;2023-03-23T06:33:15;1.30;;;0.87;;
17079;SDS011;8655;57.106;-2.088;2023-03-23T06:35:42;1.33;;;0.90;;
17079;SDS011;8655;57.106;-2.088;2023-03-23T06:38:08;1.63;;;1.00;;
17079;SDS011;8655;57.106;-2.088;2023-03-23T06:40:34;1.07;;;0.83;;
17079;SDS011;8655;57.106;-2.088;2023-03-23T06:43:01;1.20;;;0.80;;
17079;SDS011;8655;57.106;-2.088;2023-03-23T06:45:28;0.73;;;0.70;;
17079;SDS011;8655;57.106;-2.088;2023-03-23T06:47:55;1.53;;;0.90;;
17079;SDS011;8655;57.106;-2.088;2023-03-23T06:50:21;0.80;;;0.70;;
17079;SDS011;8655;57.106;-2.088;2023-03-23T06:52:47;0.73;;;0.60;;
17079;SDS011;8655;57.106;-2.088;2023-03-23T06:55:14;1.13;;;0.73;;
17079;SDS011;8655;57.106;-2.088;2023-03-23T06:57:41;1.00;;;0.87;;
17079;SDS011;8655;57.106;-2.088;2023-03-23T07:00:07;0.77;;;0.67;;
17079;SDS011;8655;57.106;-2.088;2023-03-23T07:02:37;0.90;;;0.80;;
17079;SDS011;8655;57.106;-2.088;2023-03-23T07:05:03;0.90;;;0.60;;
17079;SDS011;8655;57.106;-2.088;2023-03-23T07:07:29;1.03;;;0.80;;
17079;SDS011;8655;57.106;-2.088;2023-03-23T07:09:55;0.90;;;0.70;;
17079;SDS011;8655;57.106;-2.088;2023-03-23T07:12:21;0.70;;;0.53;;
17079;SDS011;8655;57.106;-2.088;2023-03-23T07:14:47;0.90;;;0.70;;
17079;SDS011;8655;57.106;-2.088;2023-03-23T07:17:13;1.73;;;0.80;;
17079;SDS011;8655;57.106;-2.088;2023-03-23T07:19:39;1.00;;;0.60;;
17079;SDS011;8655;57.106;-2.088;2023-03-23T07:22:05;0.90;;;0.60;;
17079;SDS011;8655;57.106;-2.088;2023-03-23T07:24:32;1.60;;;0.93;;
17079;SDS011;8655;57.106;-2.088;2023-03-23T07:26:59;0.70;;;0.63;;
17079;SDS011;8655;57.106;-2.088;2023-03-23T07:29:25;1.13;;;0.77;;
17079;SDS011;8655;57.106;-2.088;2023-03-23T07:31:51;1.47;;;0.83;;
17079;SDS011;8655;57.106;-2.088;2023-03-23T07:34:18;1.47;;;0.80;;
17079;SDS011;8655;57.106;-2.088;2023-03-23T07:36:44;1.50;;;0.80;;
17079;SDS011;8655;57.106;-2.088;2023-03-23T07:39:10;0.80;;;0.50;;
17079;SDS011;8655;57.106;-2.088;2023-03-23T07:41:37;0.77;;;0.60;;
17079;SDS011;8655;57.106;-2.088;2023-03-23T07:44:03;1.50;;;0.87;;
17079;SDS011;8655;57.106;-2.088;2023-03-23T07:46:30;0.93;;;0.60;;
17079;SDS011;8655;57.106;-2.088;2023-03-23T07:48:56;1.27;;;0.80;;
17079;SDS011;8655;57.106;-2.088;2023-03-23T07:51:22;0.93;;;0.63;;
17079;SDS011;8655;57.106;-2.088;2023-03-23T07:53:48;0.73;;;0.60;;
17079;SDS011;8655;57.106;-2.088;2023-03-23T07:56:15;1.00;;;0.70;;
17079;SDS011;8655;57.106;-2.088;2023-03-23T07:58:44;1.20;;;0.80;;
17079;SDS011;8655;57.106;-2.088;2023-03-23T08:01:12;1.20;;;0.77;;
17079;SDS011;8655;57.106;-2.088;2023-03-23T08:03:38;1.87;;;0.97;;
17079;SDS011;8655;57.106;-2.088;2023-03-23T08:06:04;0.87;;;0.63;;
17079;SDS011;8655;57.106;-2.088;2023-03-23T08:08:31;0.73;;;0.60;;
17079;SDS011;8655;57.106;-2.088;2023-03-23T08:10:57;1.23;;;0.73;;
17079;SDS011;8655;57.106;-2.088;2023-03-23T08:13:24;0.60;;;0.60;;
17079;SDS011;8655;57.106;-2.088;2023-03-23T08:15:49;1.70;;;0.60;;
17079;SDS011;8655;57.106;-2.088;2023-03-23T08:18:16;1.80;;;0.83;;
17079;SDS011;8655;57.106;-2.088;2023-03-23T08:20:42;0.63;;;0.60;;
17079;SDS011;8655;57.106;-2.088;2023-03-23T08:23:09;0.60;;;0.60;;
17079;SDS011;8655;57.106;-2.088;2023-03-23T08:25:36;0.67;;;0.60;;
17079;SDS011;8655;57.106;-2.088;2023-03-23T08:28:02;0.80;;;0.50;;
17079;SDS011;8655;57.106;-2.088;2023-03-23T08:30:28;0.70;;;0.63;;
17079;SDS011;8655;57.106;-2.088;2023-03-23T08:33:01;1.33;;;0.87;;
17079;SDS011;8655;57.106;-2.088;2023-03-23T08:35:28;1.17;;;0.80;;
17079;SDS011;8655;57.106;-2.088;2023-03-23T08:37:54;0.57;;;0.53;;
17079;SDS011;8655;57.106;-2.088;2023-03-23T08:40:20;1.50;;;0.98;;
17079;SDS011;8655;57.106;-2.088;2023-03-23T08:42:48;0.60;;;0.60;;
17079;SDS011;8655;57.106;-2.088;2023-03-23T08:45:17;0.52;;;0.50;;
17079;SDS011;8655;57.106;-2.088;2023-03-23T08:47:45;0.70;;;0.57;;
17079;SDS011;8655;57.106;-2.088;2023-03-23T08:50:15;0.80;;;0.67;;
17079;SDS011;8655;57.106;-2.088;2023-03-23T08:52:43;0.90;;;0.70;;
17079;SDS011;8655;57.106;-2.088;2023-03-23T08:55:09;1.17;;;0.80;;
17079;SDS011;8655;57.106;-2.088;2023-03-23T08:57:35;1.33;;;0.67;;
17079;SDS011;8655;57.106;-2.088;2023-03-23T09:00:03;0.80;;;0.53;;
17079;SDS011;8655;57.106;-2.088;2023-03-23T09:02:38;0.50;;;0.50;;
17079;SDS011;8655;57.106;-2.088;2023-03-23T09:05:05;0.60;;;0.47;;
17079;SDS011;8655;57.106;-2.088;2023-03-23T09:07:32;1.27;;;0.70;;
17079;SDS011;8655;57.106;-2.088;2023-03-23T09:09:57;2.03;;;0.60;;
17079;SDS011;8655;57.106;-2.088;2023-03-23T09:12:23;1.50;;;0.70;;
17079;SDS011;8655;57.106;-2.088;2023-03-23T09:14:49;2.03;;;0.90;;
17079;SDS011;8655;57.106;-2.088;2023-03-23T09:17:15;0.73;;;0.60;;
17079;SDS011;8655;57.106;-2.088;2023-03-23T09:19:40;1.47;;;0.70;;
17079;SDS011;8655;57.106;-2.088;2023-03-23T09:22:06;1.03;;;0.67;;
17079;SDS011;8655;57.106;-2.088;2023-03-23T09:24:33;0.97;;;0.80;;
17079;SDS011;8655;57.106;-2.088;2023-03-23T09:26:59;0.73;;;0.70;;
17079;SDS011;8655;57.106;-2.088;2023-03-23T09:29:25;1.80;;;0.77;;
17079;SDS011;8655;57.106;-2.088;2023-03-23T09:31:52;1.77;;;0.70;;
17079;SDS011;8655;57.106;-2.088;2023-03-23T09:34:18;1.17;;;0.70;;
17079;SDS011;8655;57.106;-2.088;2023-03-23T09:36:44;1.05;;;0.60;;
17079;SDS011;8655;57.106;-2.088;2023-03-23T09:39:11;0.97;;;0.63;;
17079;SDS011;8655;57.106;-2.088;2023-03-23T09:41:49;0.80;;;0.60;;
17079;SDS011;8655;57.106;-2.088;2023-03-23T09:50:07;2.13;;;0.73;;
17079;SDS011;8655;57.106;-2.088;2023-03-23T09:55:11;1.80;;;0.88;;
17079;SDS011;8655;57.106;-2.088;2023-03-23T09:57:51;0.53;;;0.53;;
17079;SDS011;8655;57.106;-2.088;2023-03-23T10:00:37;1.37;;;0.70;;
17079;SDS011;8655;57.106;-2.088;2023-03-23T10:03:13;1.10;;;0.70;;
17079;SDS011;8655;57.106;-2.088;2023-03-23T10:05:48;1.23;;;0.80;;
17079;SDS011;8655;57.106;-2.088;2023-03-23T10:10:48;1.23;;;0.80;;
17079;SDS011;8655;57.106;-2.088;2023-03-23T10:16:20;0.90;;;0.77;;
17079;SDS011;8655;57.106;-2.088;2023-03-23T10:18:55;0.83;;;0.60;;
17079;SDS011;8655;57.106;-2.088;2023-03-23T10:21:35;0.87;;;0.60;;
17079;SDS011;8655;57.106;-2.088;2023-03-23T10:24:09;1.60;;;0.83;;
17079;SDS011;8655;57.106;-2.088;2023-03-23T10:31:40;1.70;;;0.90;;
17079;SDS011;8655;57.106;-2.088;2023-03-23T10:34:12;1.03;;;0.60;;
17079;SDS011;8655;57.106;-2.088;2023-03-23T10:37:02;0.70;;;0.70;;
17079;SDS011;8655;57.106;-2.088;2023-03-23T10:39:46;2.40;;;0.80;;
17079;SDS011;8655;57.106;-2.088;2023-03-23T10:42:29;1.27;;;0.80;;
17079;SDS011;8655;57.106;-2.088;2023-03-23T10:45:09;1.03;;;0.80;;
17079;SDS011;8655;57.106;-2.088;2023-03-23T10:47:58;2.13;;;0.70;;
17079;SDS011;8655;57.106;-2.088;2023-03-23T10:50:32;0.70;;;0.70;;
17079;SDS011;8655;57.106;-2.088;2023-03-23T10:53:01;1.23;;;0.83;;
17079;SDS011;8655;57.106;-2.088;2023-03-23T10:55:40;1.00;;;0.70;;
17079;SDS011;8655;57.106;-2.088;2023-03-23T10:58:09;1.23;;;0.63;;
17079;SDS011;8655;57.106;-2.088;2023-03-23T11:00:41;1.20;;;0.90;;
17079;SDS011;8655;57.106;-2.088;2023-03-23T11:05:43;1.03;;;0.80;;
17079;SDS011;8655;57.106;-2.088;2023-03-23T11:08:15;0.90;;;0.67;;
17079;SDS011;8655;57.106;-2.088;2023-03-23T11:10:50;1.80;;;0.75;;
17079;SDS011;8655;57.106;-2.088;2023-03-23T11:13:19;1.10;;;0.60;;
17079;SDS011;8655;57.106;-2.088;2023-03-23T11:15:47;0.87;;;0.60;;
17079;SDS011;8655;57.106;-2.088;2023-03-23T11:18:20;0.53;;;0.50;;
17079;SDS011;8655;57.106;-2.088;2023-03-23T11:21:08;1.00;;;0.60;;
17079;SDS011;8655;57.106;-2.088;2023-03-23T11:23:37;0.87;;;0.70;;
17079;SDS011;8655;57.106;-2.088;2023-03-23T11:28:37;1.37;;;0.60;;
17079;SDS011;8655;57.106;-2.088;2023-03-23T11:31:08;0.60;;;0.60;;
17079;SDS011;8655;57.106;-2.088;2023-03-23T11:33:47;1.37;;;0.80;;
17079;SDS011;8655;57.106;-2.088;2023-03-23T11:36:17;1.00;;;0.60;;
17079;SDS011;8655;57.106;-2.088;2023-03-23T11:38:43;1.10;;;0.77;;
17079;SDS011;8655;57.106;-2.088;2023-03-23T11:41:12;1.13;;;0.70;;
17079;SDS011;8655;57.106;-2.088;2023-03-23T11:43:44;1.17;;;0.73;;
17079;SDS011;8655;57.106;-2.088;2023-03-23T11:46:13;0.90;;;0.80;;
17079;SDS011;8655;57.106;-2.088;2023-03-23T11:56:41;1.73;;;0.90;;
17079;SDS011;8655;57.106;-2.088;2023-03-23T11:59:10;1.50;;;0.73;;
17079;SDS011;8655;57.106;-2.088;2023-03-23T12:01:53;1.03;;;0.70;;
17079;SDS011;8655;57.106;-2.088;2023-03-23T12:07:52;0.90;;;0.90;;
17079;SDS011;8655;57.106;-2.088;2023-03-23T12:16:04;1.40;;;0.90;;
17079;SDS011;8655;57.106;-2.088;2023-03-23T12:24:14;0.73;;;0.60;;
17079;SDS011;8655;57.106;-2.088;2023-03-23T12:26:54;0.50;;;0.50;;
17079;SDS011;8655;57.106;-2.088;2023-03-23T12:48:57;1.33;;;0.80;;
17079;SDS011;8655;57.106;-2.088;2023-03-23T12:51:54;1.23;;;0.87;;
17079;SDS011;8655;57.106;-2.088;2023-03-23T12:54:30;0.70;;;0.70;;
17079;SDS011;8655;57.106;-2.088;2023-03-23T12:57:11;1.07;;;0.60;;
17079;SDS011;8655;57.106;-2.088;2023-03-23T12:59:56;0.97;;;0.70;;
17079;SDS011;8655;57.106;-2.088;2023-03-23T13:05:10;0.77;;;0.53;;
17079;SDS011;8655;57.106;-2.088;2023-03-23T13:08:32;1.27;;;0.70;;
17079;SDS011;8655;57.106;-2.088;2023-03-23T13:10:45;0.73;;;0.73;;
17079;SDS011;8655;57.106;-2.088;2023-03-23T13:13:20;2.07;;;0.90;;
17079;SDS011;8655;57.106;-2.088;2023-03-23T13:15:58;1.27;;;0.73;;
17079;SDS011;8655;57.106;-2.088;2023-03-23T13:18:44;1.43;;;0.70;;
17079;SDS011;8655;57.106;-2.088;2023-03-23T13:23:39;0.70;;;0.57;;
17079;SDS011;8655;57.106;-2.088;2023-03-23T13:26:13;1.40;;;0.70;;
17079;SDS011;8655;57.106;-2.088;2023-03-23T13:34:31;1.30;;;0.90;;
17079;SDS011;8655;57.106;-2.088;2023-03-23T13:37:01;1.17;;;0.80;;
17079;SDS011;8655;57.106;-2.088;2023-03-23T13:39:32;0.80;;;0.70;;
17079;SDS011;8655;57.106;-2.088;2023-03-23T13:42:00;1.10;;;0.77;;
17079;SDS011;8655;57.106;-2.088;2023-03-23T13:44:27;1.03;;;0.80;;
17079;SDS011;8655;57.106;-2.088;2023-03-23T13:52:22;1.23;;;0.73;;
17079;SDS011;8655;57.106;-2.088;2023-03-23T13:54:48;0.97;;;0.70;;
17079;SDS011;8655;57.106;-2.088;2023-03-23T13:57:23;0.60;;;0.57;;
17079;SDS011;8655;57.106;-2.088;2023-03-23T14:00:10;1.10;;;0.80;;
17079;SDS011;8655;57.106;-2.088;2023-03-23T14:03:09;1.53;;;0.80;;
17079;SDS011;8655;57.106;-2.088;2023-03-23T14:08:24;0.90;;;0.63;;
17079;SDS011;8655;57.106;-2.088;2023-03-23T14:11:13;1.70;;;0.60;;
17079;SDS011;8655;57.106;-2.088;2023-03-23T14:19:03;0.97;;;0.80;;
17079;SDS011;8655;57.106;-2.088;2023-03-23T14:21:41;2.00;;;0.80;;
17079;SDS011;8655;57.106;-2.088;2023-03-23T14:24:20;1.00;;;0.80;;
17079;SDS011;8655;57.106;-2.088;2023-03-23T14:26:48;1.50;;;0.80;;
17079;SDS011;8655;57.106;-2.088;2023-03-23T14:29:17;1.20;;;0.63;;
17079;SDS011;8655;57.106;-2.088;2023-03-23T14:31:45;1.93;;;1.03;;
17079;SDS011;8655;57.106;-2.088;2023-03-23T14:34:17;1.53;;;0.80;;
17079;SDS011;8655;57.106;-2.088;2023-03-23T14:36:44;2.07;;;0.80;;
17079;SDS011;8655;57.106;-2.088;2023-03-23T14:39:24;1.37;;;0.90;;
17079;SDS011;8655;57.106;-2.088;2023-03-23T14:41:52;1.53;;;0.80;;
17079;SDS011;8655;57.106;-2.088;2023-03-23T14:44:24;2.33;;;1.00;;
17079;SDS011;8655;57.106;-2.088;2023-03-23T14:46:53;1.13;;;0.70;;
17079;SDS011;8655;57.106;-2.088;2023-03-23T14:49:21;2.50;;;1.10;;
17079;SDS011;8655;57.106;-2.088;2023-03-23T14:51:54;1.93;;;1.00;;
17079;SDS011;8655;57.106;-2.088;2023-03-23T14:54:27;1.80;;;0.90;;
17079;SDS011;8655;57.106;-2.088;2023-03-23T14:56:54;2.07;;;0.97;;
17079;SDS011;8655;57.106;-2.088;2023-03-23T14:59:20;2.90;;;1.20;;
17079;SDS011;8655;57.106;-2.088;2023-03-23T15:01:47;3.27;;;1.27;;
17079;SDS011;8655;57.106;-2.088;2023-03-23T15:04:16;1.87;;;1.10;;
17079;SDS011;8655;57.106;-2.088;2023-03-23T15:06:49;1.20;;;0.80;;
17079;SDS011;8655;57.106;-2.088;2023-03-23T15:09:19;2.40;;;1.30;;
17079;SDS011;8655;57.106;-2.088;2023-03-23T15:11:51;2.20;;;1.27;;
17079;SDS011;8655;57.106;-2.088;2023-03-23T15:14:23;3.33;;;1.27;;
17079;SDS011;8655;57.106;-2.088;2023-03-23T15:16:53;2.90;;;1.30;;
17079;SDS011;8655;57.106;-2.088;2023-03-23T15:19:25;1.83;;;0.80;;
17079;SDS011;8655;57.106;-2.088;2023-03-23T15:22:04;2.93;;;1.20;;
17079;SDS011;8655;57.106;-2.088;2023-03-23T15:24:42;2.63;;;1.23;;
17079;SDS011;8655;57.106;-2.088;2023-03-23T15:27:14;4.00;;;0.97;;
17079;SDS011;8655;57.106;-2.088;2023-03-23T15:29:53;2.27;;;1.20;;
17079;SDS011;8655;57.106;-2.088;2023-03-23T15:32:25;3.07;;;1.20;;
17079;SDS011;8655;57.106;-2.088;2023-03-23T15:34:51;1.80;;;1.03;;
17079;SDS011;8655;57.106;-2.088;2023-03-23T15:37:23;2.03;;;1.20;;
17079;SDS011;8655;57.106;-2.088;2023-03-23T15:39:50;3.63;;;1.20;;
17079;SDS011;8655;57.106;-2.088;2023-03-23T15:47:50;3.63;;;1.47;;
17079;SDS011;8655;57.106;-2.088;2023-03-23T15:50:19;3.23;;;1.60;;
17079;SDS011;8655;57.106;-2.088;2023-03-23T15:52:51;3.07;;;1.37;;
17079;SDS011;8655;57.106;-2.088;2023-03-23T15:55:27;2.67;;;1.23;;
17079;SDS011;8655;57.106;-2.088;2023-03-23T15:57:55;2.90;;;1.07;;
17079;SDS011;8655;57.106;-2.088;2023-03-23T16:00:23;3.00;;;1.40;;
17079;SDS011;8655;57.106;-2.088;2023-03-23T16:02:53;3.87;;;1.23;;
17079;SDS011;8655;57.106;-2.088;2023-03-23T16:05:21;2.37;;;1.17;;
17079;SDS011;8655;57.106;-2.088;2023-03-23T16:07:47;2.83;;;1.23;;
17079;SDS011;8655;57.106;-2.088;2023-03-23T16:10:15;3.50;;;1.50;;
17079;SDS011;8655;57.106;-2.088;2023-03-23T16:12:43;2.90;;;1.10;;
17079;SDS011;8655;57.106;-2.088;2023-03-23T16:15:09;3.63;;;1.00;;
17079;SDS011;8655;57.106;-2.088;2023-03-23T16:17:36;2.63;;;1.10;;
17079;SDS011;8655;57.106;-2.088;2023-03-23T16:20:01;3.90;;;1.50;;
17079;SDS011;8655;57.106;-2.088;2023-03-23T16:22:33;2.80;;;1.13;;
17079;SDS011;8655;57.106;-2.088;2023-03-23T16:24:59;3.10;;;1.17;;
17079;SDS011;8655;57.106;-2.088;2023-03-23T16:27:25;2.10;;;1.23;;
17079;SDS011;8655;57.106;-2.088;2023-03-23T16:29:51;3.73;;;1.30;;
17079;SDS011;8655;57.106;-2.088;2023-03-23T16:32:17;3.73;;;1.37;;
17079;SDS011;8655;57.106;-2.088;2023-03-23T16:34:42;2.40;;;1.10;;
17079;SDS011;8655;57.106;-2.088;2023-03-23T16:37:09;2.27;;;1.27;;
17079;SDS011;8655;57.106;-2.088;2023-03-23T16:39:36;2.33;;;1.20;;
17079;SDS011;8655;57.106;-2.088;2023-03-23T16:42:01;2.40;;;1.10;;
17079;SDS011;8655;57.106;-2.088;2023-03-23T16:44:27;3.23;;;1.33;;
17079;SDS011;8655;57.106;-2.088;2023-03-23T16:46:53;3.57;;;1.30;;
17079;SDS011;8655;57.106;-2.088;2023-03-23T16:49:18;2.97;;;1.30;;
17079;SDS011;8655;57.106;-2.088;2023-03-23T16:51:44;2.00;;;1.07;;
17079;SDS011;8655;57.106;-2.088;2023-03-23T16:54:12;3.23;;;1.20;;
17079;SDS011;8655;57.106;-2.088;2023-03-23T16:56:37;4.33;;;1.17;;
17079;SDS011;8655;57.106;-2.088;2023-03-23T16:59:03;2.87;;;1.20;;
17079;SDS011;8655;57.106;-2.088;2023-03-23T17:01:29;1.97;;;1.20;;
17079;SDS011;8655;57.106;-2.088;2023-03-23T17:03:54;3.53;;;1.30;;
17079;SDS011;8655;57.106;-2.088;2023-03-23T17:06:20;2.73;;;1.20;;